KORD/ORD METAR and TAF weather

Enter ICAO airport designator
Station Type Date Time Source
KORD METAR 2021/05/15 01:51 UTC NOAA

KORD 150151Z 15005KT 10SM BKN200 OVC250 16/M02 A3022 RMK AO2 SLP230 T01611017 $


Station Type Date Time Source
KORD Decoded METAR 2021/05/15 01:51 UTC NOAA

CHICAGO O'HARE INTERNATIONAL, IL, United States (KORD) 41-59N 087-55W 200M
May 14, 2021 - 09:51 PM EDT / 2021.05.15 0151 UTC
Wind: from the SSE (150 degrees) at 6 MPH (5 KT):0
Visibility: 10 mile(s):0
Sky conditions: overcast
Temperature: 61.0 F (16.1 C)
Dew Point: 28.9 F (-1.7 C)
Relative Humidity: 29%
Pressure (altimeter): 30.22 in. Hg (1023 hPa)
ob: KORD 150151Z 15005KT 10SM BKN200 OVC250 16/M02 A3022 RMK AO2 SLP230 T01611017
cycle: 2

Station Type Date Time Source
KORD TAF 2021/05/14 21:59 UTC NOAA

TAF
AMD KORD 142059Z 1421/1524 11011KT P6SM SCT100 BKN250
FM150100 13005KT P6SM FEW100 BKN250
FM150600 18005KT P6SM BKN200
FM151500 20010G15KT P6SM OVC080 PROB30 1516/1522 6SM -SHRA BKN025

Example: see airport list